createdAt,value
2022-09-24T00:01:20.630Z,997.01
2022-09-24T00:06:20.601Z,997.02
2022-09-24T00:11:20.501Z,996.98
2022-09-24T00:16:20.643Z,996.93
2022-09-24T00:21:20.474Z,996.87
2022-09-24T00:26:20.456Z,996.89
2022-09-24T00:31:31.389Z,996.85
2022-09-24T00:36:20.314Z,996.83
2022-09-24T00:41:20.310Z,996.85
2022-09-24T00:46:20.249Z,996.90
2022-09-24T00:51:20.135Z,996.91
2022-09-24T00:56:20.037Z,996.82
2022-09-24T01:01:20.045Z,996.81
2022-09-24T01:06:19.916Z,996.80
2022-09-24T01:11:19.812Z,996.86
2022-09-24T01:16:19.877Z,996.87
2022-09-24T01:21:19.707Z,996.84
2022-09-24T01:26:19.621Z,996.85
2022-09-24T01:31:19.611Z,996.72
2022-09-24T01:36:19.525Z,996.66
2022-09-24T01:41:19.491Z,996.67
2022-09-24T01:46:19.482Z,996.68
2022-09-24T01:51:19.381Z,996.54
2022-09-24T01:56:19.306Z,996.55
2022-09-24T02:01:19.389Z,996.50
2022-09-24T02:06:19.333Z,996.45
2022-09-24T02:11:22.732Z,996.43
2022-09-24T02:16:19.269Z,996.44
2022-09-24T02:21:19.045Z,996.38
2022-09-24T02:26:19.082Z,996.34
2022-09-24T02:31:21.012Z,996.31
2022-09-24T02:36:18.872Z,996.29
2022-09-24T02:41:18.834Z,996.27
2022-09-24T02:46:18.872Z,996.26
2022-09-24T02:51:18.746Z,996.23
2022-09-24T02:56:18.717Z,996.22
2022-09-24T03:01:18.680Z,996.18
2022-09-24T03:06:18.531Z,996.21
2022-09-24T03:11:18.998Z,996.15
2022-09-24T03:16:18.497Z,996.13
2022-09-24T03:21:18.383Z,996.06
2022-09-24T03:26:18.352Z,995.99
2022-09-24T03:31:18.334Z,995.91
2022-09-24T03:36:18.339Z,995.94
2022-09-24T03:41:18.267Z,995.92
2022-09-24T03:46:18.242Z,995.84
2022-09-24T03:51:18.063Z,995.80
2022-09-24T03:56:18.094Z,995.81
2022-09-24T04:01:18.080Z,995.76
2022-09-24T04:06:21.996Z,995.72
2022-09-24T04:11:18.816Z,995.69
2022-09-24T04:16:17.824Z,995.62
2022-09-24T04:21:17.719Z,995.54
2022-09-24T04:26:17.672Z,995.54
2022-09-24T04:31:17.712Z,995.57
2022-09-24T04:36:17.594Z,995.60
2022-09-24T04:41:17.522Z,995.57
2022-09-24T04:46:17.545Z,995.62
2022-09-24T04:51:17.405Z,995.58
2022-09-24T04:56:17.360Z,995.58
2022-09-24T05:01:17.359Z,995.54
2022-09-24T05:06:17.216Z,995.54
2022-09-24T05:11:17.165Z,995.61
2022-09-24T05:16:17.133Z,995.48
2022-09-24T05:21:17.033Z,995.57
2022-09-24T05:26:16.971Z,995.63
2022-09-24T05:31:16.973Z,995.60
2022-09-24T05:36:16.868Z,995.61
2022-09-24T05:41:16.797Z,995.62
2022-09-24T05:46:16.816Z,995.63
2022-09-24T05:51:16.682Z,995.66
2022-09-24T05:56:16.634Z,995.69
2022-09-24T06:01:16.669Z,995.72
2022-09-24T06:06:16.603Z,995.69
2022-09-24T06:11:16.540Z,995.65
2022-09-24T06:16:16.584Z,995.70
2022-09-24T06:21:16.420Z,995.74
2022-09-24T06:26:17.393Z,995.73
2022-09-24T06:31:16.342Z,995.73
2022-09-24T06:36:16.240Z,995.80
2022-09-24T06:41:16.129Z,995.88
2022-09-24T06:46:16.174Z,995.89
2022-09-24T06:51:16.053Z,995.91
2022-09-24T06:56:15.980Z,995.92
2022-09-24T07:01:15.996Z,995.95
2022-09-24T07:06:15.871Z,995.98
2022-09-24T07:11:15.833Z,995.92
2022-09-24T07:16:15.815Z,995.85
2022-09-24T07:21:15.678Z,995.99
2022-09-24T07:26:15.740Z,996.04
2022-09-24T07:31:15.780Z,995.99
2022-09-24T07:36:15.628Z,996.02
2022-09-24T07:41:15.578Z,996.11
2022-09-24T07:46:16.470Z,996.12
2022-09-24T07:51:15.487Z,996.15
2022-09-24T07:56:15.299Z,996.07
2022-09-24T08:01:15.292Z,996.11
2022-09-24T08:06:15.250Z,996.08
2022-09-24T08:11:15.144Z,996.16
2022-09-24T08:16:15.096Z,996.13
2022-09-24T08:21:15.045Z,996.10
2022-09-24T08:26:14.970Z,996.09
2022-09-24T08:31:15.024Z,996.10
2022-09-24T08:36:14.905Z,996.09
2022-09-24T08:41:14.805Z,996.10
2022-09-24T08:46:14.825Z,996.07
2022-09-24T08:51:14.714Z,996.07
2022-09-24T08:56:14.676Z,996.08
2022-09-24T09:01:14.685Z,996.10
2022-09-24T09:06:14.637Z,996.10
2022-09-24T09:11:14.566Z,996.21
2022-09-24T09:16:14.439Z,996.22
2022-09-24T09:21:14.525Z,996.19
2022-09-24T09:26:14.389Z,996.19
2022-09-24T09:31:14.472Z,996.17
2022-09-24T09:36:14.247Z,996.23
2022-09-24T09:41:14.196Z,996.15
2022-09-24T09:46:14.174Z,996.16
2022-09-24T09:51:16.637Z,996.14
2022-09-24T09:56:14.130Z,996.12
2022-09-24T10:01:14.091Z,996.12
2022-09-24T10:06:14.029Z,996.12
2022-09-24T10:11:13.867Z,996.05
2022-09-24T10:16:13.910Z,996.09
2022-09-24T10:21:13.791Z,996.12
2022-09-24T10:26:13.774Z,996.08
2022-09-24T10:31:13.636Z,996.12
2022-09-24T10:36:13.701Z,996.11
2022-09-24T10:41:14.544Z,996.13
2022-09-24T10:46:13.618Z,996.09
2022-09-24T10:51:13.435Z,996.12
2022-09-24T10:56:13.357Z,996.12
2022-09-24T11:01:13.327Z,996.05
2022-09-24T11:06:13.285Z,996.03
2022-09-24T11:11:13.342Z,996.06
2022-09-24T11:16:13.195Z,995.99
2022-09-24T11:21:13.107Z,995.95
2022-09-24T11:26:14.097Z,995.93
2022-09-24T11:31:13.136Z,995.98
2022-09-24T11:36:13.799Z,996.02
2022-09-24T11:41:16.036Z,996.02
2022-09-24T11:46:12.889Z,996.03
2022-09-24T11:51:14.394Z,996.07
2022-09-24T11:56:13.591Z,996.06
2022-09-24T12:01:14.012Z,996.00
2022-09-24T12:06:12.612Z,996.00
2022-09-24T12:11:12.598Z,995.95
2022-09-24T12:16:12.553Z,995.91
2022-09-24T12:21:12.404Z,995.95
2022-09-24T12:26:12.413Z,995.88
2022-09-24T12:31:12.766Z,995.83
2022-09-24T12:36:12.335Z,995.84
2022-09-24T12:41:12.209Z,995.80
2022-09-24T12:46:12.288Z,995.77
2022-09-24T12:51:12.168Z,995.77
2022-09-24T12:56:12.063Z,995.80
2022-09-24T13:01:12.058Z,995.86
2022-09-24T13:06:11.995Z,995.83
2022-09-24T13:11:12.070Z,995.78
2022-09-24T13:16:12.098Z,995.80
2022-09-24T13:21:11.948Z,995.83
2022-09-24T13:26:11.901Z,995.83
2022-09-24T13:31:12.867Z,995.89
2022-09-24T13:36:11.815Z,995.90
2022-09-24T13:41:12.782Z,995.91
2022-09-24T13:46:11.561Z,995.94
2022-09-24T13:51:11.474Z,995.89
2022-09-24T13:56:11.450Z,995.92
2022-09-24T14:01:13.156Z,995.88
2022-09-24T14:06:11.375Z,995.88
2022-09-24T14:11:11.341Z,995.89
2022-09-24T14:16:11.529Z,995.86
2022-09-24T14:21:11.216Z,995.83
2022-09-24T14:26:11.152Z,995.80
2022-09-24T14:31:11.184Z,995.85
2022-09-24T14:36:11.198Z,995.85
2022-09-24T14:41:11.035Z,995.86
2022-09-24T14:46:10.955Z,995.89
2022-09-24T14:51:10.799Z,995.83
2022-09-24T14:56:10.796Z,995.87
2022-09-24T15:01:10.731Z,995.81
2022-09-24T15:06:10.846Z,995.87
2022-09-24T15:11:10.565Z,995.92
2022-09-24T15:16:10.546Z,995.86
2022-09-24T15:21:10.595Z,995.91
2022-09-24T15:26:10.408Z,995.91
2022-09-24T15:31:10.486Z,995.91
2022-09-24T15:36:10.449Z,995.85
2022-09-24T15:41:10.318Z,995.81
2022-09-24T15:46:10.219Z,995.81
2022-09-24T15:51:13.781Z,995.88
2022-09-24T15:56:11.122Z,995.90
2022-09-24T16:01:10.106Z,995.96
2022-09-24T16:06:09.989Z,995.97
2022-09-24T16:11:09.957Z,995.98
2022-09-24T16:16:09.961Z,996.06
2022-09-24T16:21:09.874Z,996.05
2022-09-24T16:26:10.782Z,996.14
2022-09-24T16:31:09.731Z,996.15
2022-09-24T16:36:09.664Z,996.14
2022-09-24T17:07:41.200Z,996.29
2022-09-24T17:12:40.967Z,996.29
2022-09-24T17:17:45.619Z,996.35
2022-09-24T17:22:41.877Z,996.40
2022-09-24T17:27:40.787Z,996.42
2022-09-24T17:32:40.781Z,996.45
2022-09-24T17:37:41.771Z,996.45
2022-09-24T17:42:40.671Z,996.46
2022-09-24T17:47:40.582Z,996.52
2022-09-24T17:52:40.646Z,996.52
2022-09-24T17:57:40.578Z,996.50
2022-09-24T18:02:42.514Z,996.53
2022-09-24T18:07:42.622Z,996.56
2022-09-24T18:12:44.638Z,996.62
2022-09-24T18:17:40.476Z,996.66
2022-09-24T18:22:43.389Z,996.67
2022-09-24T18:27:40.193Z,996.70
2022-09-24T18:32:40.379Z,996.80
2022-09-24T18:37:44.179Z,996.80
2022-09-24T18:42:39.987Z,996.80
2022-09-24T18:47:40.057Z,996.83
2022-09-24T18:52:39.951Z,996.86
2022-09-24T18:57:42.002Z,996.94
2022-09-24T19:02:39.905Z,996.92
2022-09-24T19:07:44.214Z,996.89
2022-09-24T19:12:39.813Z,996.92
2022-09-24T19:17:42.109Z,996.98
2022-09-24T19:22:39.823Z,997.03
2022-09-24T19:27:50.347Z,997.01
2022-09-24T19:32:48.335Z,997.01
2022-09-24T19:37:39.437Z,997.04
2022-09-24T19:42:39.526Z,997.07
2022-09-24T19:47:41.765Z,997.11
2022-09-24T19:52:39.377Z,997.04
2022-09-24T19:57:39.610Z,997.04
2022-09-24T20:02:41.114Z,997.08
2022-09-24T20:07:47.991Z,997.10
2022-09-24T20:12:39.055Z,997.13
2022-09-24T20:17:38.960Z,997.15
2022-09-24T20:22:39.847Z,997.12
2022-09-24T20:27:38.771Z,997.17
2022-09-24T20:32:38.709Z,997.19
2022-09-24T20:37:38.731Z,997.26
2022-09-24T20:42:38.715Z,997.27
2022-09-24T20:47:38.574Z,997.31
2022-09-24T20:52:38.515Z,997.27
2022-09-24T20:57:38.568Z,997.28
2022-09-24T21:02:41.308Z,997.27
2022-09-24T21:07:38.416Z,997.27
2022-09-24T21:12:40.552Z,997.29
2022-09-24T21:17:38.304Z,997.32
2022-09-24T21:22:39.250Z,997.37
2022-09-24T21:27:38.121Z,997.32
2022-09-24T21:32:38.113Z,997.35
2022-09-24T21:37:38.071Z,997.41
2022-09-24T21:42:38.452Z,997.45
2022-09-24T21:47:37.992Z,997.40
2022-09-24T21:52:37.956Z,997.44
2022-09-24T21:57:37.882Z,997.41
2022-09-24T22:02:43.186Z,997.45
2022-09-24T22:07:37.679Z,997.41
2022-09-24T22:12:37.703Z,997.41
2022-09-24T22:17:37.583Z,997.37
2022-09-24T22:22:38.541Z,997.34
2022-09-24T22:27:37.484Z,997.30
2022-09-24T22:32:37.446Z,997.37
2022-09-24T22:37:37.383Z,997.35
2022-09-24T22:42:37.287Z,997.33
2022-09-24T22:47:37.312Z,997.41
2022-09-24T22:52:37.207Z,997.43
2022-09-24T22:57:37.127Z,997.39
2022-09-24T23:02:37.192Z,997.42
2022-09-24T23:07:37.248Z,997.40
2022-09-24T23:12:37.117Z,997.41
2022-09-24T23:17:37.106Z,997.33
2022-09-24T23:22:36.906Z,997.34
2022-09-24T23:27:36.906Z,997.30
2022-09-24T23:32:36.749Z,997.29
2022-09-24T23:37:36.699Z,997.30
2022-09-24T23:42:36.668Z,997.33
2022-09-24T23:47:37.889Z,997.38
2022-09-24T23:52:36.904Z,997.38
2022-09-24T23:57:36.557Z,997.45
